sensor_id;sensor_type;location;lat;lon;timestamp;P1;durP1;ratioP1;P2;durP2;ratioP2
14516;SDS011;7344;50.864;4.362;2023-07-31T00:02:16;15.18;;;5.88;;
14516;SDS011;7344;50.864;4.362;2023-07-31T00:04:42;12.80;;;5.63;;
14516;SDS011;7344;50.864;4.362;2023-07-31T00:07:08;16.85;;;6.10;;
14516;SDS011;7344;50.864;4.362;2023-07-31T00:09:33;13.18;;;5.80;;
14516;SDS011;7344;50.864;4.362;2023-07-31T00:11:59;13.70;;;5.63;;
14516;SDS011;7344;50.864;4.362;2023-07-31T00:14:25;16.50;;;5.93;;
14516;SDS011;7344;50.864;4.362;2023-07-31T00:16:50;10.90;;;5.90;;
14516;SDS011;7344;50.864;4.362;2023-07-31T00:19:16;11.85;;;5.78;;
14516;SDS011;7344;50.864;4.362;2023-07-31T00:21:42;12.10;;;5.90;;
14516;SDS011;7344;50.864;4.362;2023-07-31T00:24:08;11.77;;;5.55;;
14516;SDS011;7344;50.864;4.362;2023-07-31T00:26:34;12.52;;;5.43;;
14516;SDS011;7344;50.864;4.362;2023-07-31T00:29:00;13.75;;;6.15;;
14516;SDS011;7344;50.864;4.362;2023-07-31T00:31:25;12.95;;;5.97;;
14516;SDS011;7344;50.864;4.362;2023-07-31T00:33:51;13.60;;;5.65;;
14516;SDS011;7344;50.864;4.362;2023-07-31T00:36:17;11.18;;;5.75;;
14516;SDS011;7344;50.864;4.362;2023-07-31T00:38:43;14.77;;;5.70;;
14516;SDS011;7344;50.864;4.362;2023-07-31T00:41:09;13.93;;;5.90;;
14516;SDS011;7344;50.864;4.362;2023-07-31T00:43:34;13.43;;;5.95;;
14516;SDS011;7344;50.864;4.362;2023-07-31T00:46:00;15.07;;;6.28;;
14516;SDS011;7344;50.864;4.362;2023-07-31T00:48:26;10.70;;;5.60;;
14516;SDS011;7344;50.864;4.362;2023-07-31T00:50:52;11.27;;;5.50;;
14516;SDS011;7344;50.864;4.362;2023-07-31T00:53:17;16.58;;;6.40;;
14516;SDS011;7344;50.864;4.362;2023-07-31T00:55:43;15.63;;;5.65;;
14516;SDS011;7344;50.864;4.362;2023-07-31T00:58:09;10.30;;;5.53;;
14516;SDS011;7344;50.864;4.362;2023-07-31T01:00:35;11.70;;;5.82;;
14516;SDS011;7344;50.864;4.362;2023-07-31T01:03:01;14.02;;;6.20;;
14516;SDS011;7344;50.864;4.362;2023-07-31T01:08:05;8.38;;;5.53;;
14516;SDS011;7344;50.864;4.362;2023-07-31T01:10:41;11.45;;;5.38;;
14516;SDS011;7344;50.864;4.362;2023-07-31T01:13:30;12.02;;;5.63;;
14516;SDS011;7344;50.864;4.362;2023-07-31T01:15:56;15.70;;;5.70;;
14516;SDS011;7344;50.864;4.362;2023-07-31T01:18:21;9.32;;;5.40;;
14516;SDS011;7344;50.864;4.362;2023-07-31T01:20:49;11.88;;;5.45;;
14516;SDS011;7344;50.864;4.362;2023-07-31T01:26:16;12.85;;;5.70;;
14516;SDS011;7344;50.864;4.362;2023-07-31T01:29:01;14.07;;;5.53;;
14516;SDS011;7344;50.864;4.362;2023-07-31T01:31:33;14.02;;;5.60;;
14516;SDS011;7344;50.864;4.362;2023-07-31T01:34:01;11.77;;;5.78;;
14516;SDS011;7344;50.864;4.362;2023-07-31T01:36:28;10.57;;;5.90;;
14516;SDS011;7344;50.864;4.362;2023-07-31T01:38:59;11.03;;;5.37;;
14516;SDS011;7344;50.864;4.362;2023-07-31T01:41:25;9.57;;;5.03;;
14516;SDS011;7344;50.864;4.362;2023-07-31T01:43:51;10.88;;;5.80;;
14516;SDS011;7344;50.864;4.362;2023-07-31T01:46:16;12.45;;;5.45;;
14516;SDS011;7344;50.864;4.362;2023-07-31T01:48:42;11.95;;;5.60;;
14516;SDS011;7344;50.864;4.362;2023-07-31T01:51:07;10.23;;;5.95;;
14516;SDS011;7344;50.864;4.362;2023-07-31T01:53:33;14.60;;;5.80;;
14516;SDS011;7344;50.864;4.362;2023-07-31T01:55:59;10.80;;;6.07;;
14516;SDS011;7344;50.864;4.362;2023-07-31T01:58:24;11.63;;;5.47;;
14516;SDS011;7344;50.864;4.362;2023-07-31T02:00:50;10.20;;;5.60;;
14516;SDS011;7344;50.864;4.362;2023-07-31T02:03:16;13.60;;;5.70;;
14516;SDS011;7344;50.864;4.362;2023-07-31T02:05:45;8.30;;;5.75;;
14516;SDS011;7344;50.864;4.362;2023-07-31T02:08:11;13.57;;;5.82;;
14516;SDS011;7344;50.864;4.362;2023-07-31T02:10:37;10.02;;;5.78;;
14516;SDS011;7344;50.864;4.362;2023-07-31T02:13:03;15.68;;;5.75;;
14516;SDS011;7344;50.864;4.362;2023-07-31T02:15:29;16.23;;;6.47;;
14516;SDS011;7344;50.864;4.362;2023-07-31T02:17:55;10.40;;;5.85;;
14516;SDS011;7344;50.864;4.362;2023-07-31T02:20:21;15.20;;;6.03;;
14516;SDS011;7344;50.864;4.362;2023-07-31T02:22:46;11.23;;;6.07;;
14516;SDS011;7344;50.864;4.362;2023-07-31T02:25:12;12.70;;;5.93;;
14516;SDS011;7344;50.864;4.362;2023-07-31T02:27:38;13.55;;;5.88;;
14516;SDS011;7344;50.864;4.362;2023-07-31T02:30:03;11.68;;;6.53;;
14516;SDS011;7344;50.864;4.362;2023-07-31T02:32:29;10.45;;;5.90;;
14516;SDS011;7344;50.864;4.362;2023-07-31T02:34:55;8.63;;;6.13;;
14516;SDS011;7344;50.864;4.362;2023-07-31T02:37:20;9.80;;;5.38;;
14516;SDS011;7344;50.864;4.362;2023-07-31T02:39:46;11.73;;;6.22;;
14516;SDS011;7344;50.864;4.362;2023-07-31T02:42:12;11.13;;;6.10;;
14516;SDS011;7344;50.864;4.362;2023-07-31T02:44:38;11.82;;;6.75;;
14516;SDS011;7344;50.864;4.362;2023-07-31T02:47:04;11.05;;;5.45;;
14516;SDS011;7344;50.864;4.362;2023-07-31T02:49:29;8.02;;;5.10;;
14516;SDS011;7344;50.864;4.362;2023-07-31T02:51:55;9.35;;;5.53;;
14516;SDS011;7344;50.864;4.362;2023-07-31T02:54:21;7.78;;;5.30;;
14516;SDS011;7344;50.864;4.362;2023-07-31T02:56:46;8.10;;;5.63;;
14516;SDS011;7344;50.864;4.362;2023-07-31T02:59:12;10.55;;;5.85;;
14516;SDS011;7344;50.864;4.362;2023-07-31T03:01:38;7.20;;;5.57;;
14516;SDS011;7344;50.864;4.362;2023-07-31T03:04:04;7.63;;;5.10;;
14516;SDS011;7344;50.864;4.362;2023-07-31T03:06:29;7.55;;;4.65;;
14516;SDS011;7344;50.864;4.362;2023-07-31T03:08:55;6.55;;;4.63;;
14516;SDS011;7344;50.864;4.362;2023-07-31T03:11:21;7.35;;;4.50;;
14516;SDS011;7344;50.864;4.362;2023-07-31T03:13:46;7.57;;;4.82;;
14516;SDS011;7344;50.864;4.362;2023-07-31T03:16:12;6.72;;;4.70;;
14516;SDS011;7344;50.864;4.362;2023-07-31T03:18:37;7.57;;;4.70;;
14516;SDS011;7344;50.864;4.362;2023-07-31T03:21:03;7.03;;;4.88;;
14516;SDS011;7344;50.864;4.362;2023-07-31T03:23:29;7.57;;;4.72;;
14516;SDS011;7344;50.864;4.362;2023-07-31T03:25:58;6.15;;;5.00;;
14516;SDS011;7344;50.864;4.362;2023-07-31T03:28:25;8.52;;;4.63;;
14516;SDS011;7344;50.864;4.362;2023-07-31T03:30:51;6.07;;;4.70;;
14516;SDS011;7344;50.864;4.362;2023-07-31T03:33:17;6.65;;;4.97;;
14516;SDS011;7344;50.864;4.362;2023-07-31T03:35:43;6.43;;;4.78;;
14516;SDS011;7344;50.864;4.362;2023-07-31T03:38:09;8.93;;;4.77;;
14516;SDS011;7344;50.864;4.362;2023-07-31T03:40:34;9.00;;;5.25;;
14516;SDS011;7344;50.864;4.362;2023-07-31T03:43:00;6.93;;;4.95;;
14516;SDS011;7344;50.864;4.362;2023-07-31T03:45:25;6.15;;;4.82;;
14516;SDS011;7344;50.864;4.362;2023-07-31T03:47:51;9.02;;;5.55;;
14516;SDS011;7344;50.864;4.362;2023-07-31T03:50:17;8.40;;;5.22;;
14516;SDS011;7344;50.864;4.362;2023-07-31T03:52:42;6.78;;;5.03;;
14516;SDS011;7344;50.864;4.362;2023-07-31T03:55:08;6.05;;;5.03;;
14516;SDS011;7344;50.864;4.362;2023-07-31T03:57:33;8.97;;;5.47;;
14516;SDS011;7344;50.864;4.362;2023-07-31T03:59:59;7.23;;;5.10;;
14516;SDS011;7344;50.864;4.362;2023-07-31T04:02:25;9.00;;;5.47;;
14516;SDS011;7344;50.864;4.362;2023-07-31T04:04:50;5.73;;;5.17;;
14516;SDS011;7344;50.864;4.362;2023-07-31T04:07:16;6.40;;;5.10;;
14516;SDS011;7344;50.864;4.362;2023-07-31T04:09:41;6.23;;;4.97;;
14516;SDS011;7344;50.864;4.362;2023-07-31T04:12:07;6.80;;;4.80;;
14516;SDS011;7344;50.864;4.362;2023-07-31T04:14:33;8.27;;;4.97;;
14516;SDS011;7344;50.864;4.362;2023-07-31T04:16:58;11.73;;;5.50;;
14516;SDS011;7344;50.864;4.362;2023-07-31T04:19:24;8.67;;;4.93;;
14516;SDS011;7344;50.864;4.362;2023-07-31T04:21:49;8.73;;;5.33;;
14516;SDS011;7344;50.864;4.362;2023-07-31T04:24:15;9.13;;;5.47;;
14516;SDS011;7344;50.864;4.362;2023-07-31T04:26:47;8.23;;;5.07;;
14516;SDS011;7344;50.864;4.362;2023-07-31T04:29:12;7.97;;;5.43;;
14516;SDS011;7344;50.864;4.362;2023-07-31T04:31:38;9.43;;;5.07;;
14516;SDS011;7344;50.864;4.362;2023-07-31T04:34:03;8.17;;;5.40;;
14516;SDS011;7344;50.864;4.362;2023-07-31T04:36:29;9.57;;;5.33;;
14516;SDS011;7344;50.864;4.362;2023-07-31T04:38:55;6.70;;;5.40;;
14516;SDS011;7344;50.864;4.362;2023-07-31T04:41:20;5.70;;;4.40;;
14516;SDS011;7344;50.864;4.362;2023-07-31T04:43:46;8.03;;;4.80;;
14516;SDS011;7344;50.864;4.362;2023-07-31T04:46:12;7.97;;;5.10;;
14516;SDS011;7344;50.864;4.362;2023-07-31T04:48:37;9.07;;;4.40;;
14516;SDS011;7344;50.864;4.362;2023-07-31T04:51:03;5.63;;;4.90;;
14516;SDS011;7344;50.864;4.362;2023-07-31T04:53:28;6.87;;;4.70;;
14516;SDS011;7344;50.864;4.362;2023-07-31T04:55:54;9.87;;;4.80;;
14516;SDS011;7344;50.864;4.362;2023-07-31T04:58:20;6.20;;;5.00;;
14516;SDS011;7344;50.864;4.362;2023-07-31T05:00:45;6.67;;;4.53;;
14516;SDS011;7344;50.864;4.362;2023-07-31T05:03:11;9.27;;;4.93;;
14516;SDS011;7344;50.864;4.362;2023-07-31T05:05:36;5.80;;;4.33;;
14516;SDS011;7344;50.864;4.362;2023-07-31T05:08:02;10.30;;;5.10;;
14516;SDS011;7344;50.864;4.362;2023-07-31T05:10:28;7.80;;;5.23;;
14516;SDS011;7344;50.864;4.362;2023-07-31T05:12:53;8.03;;;5.10;;
14516;SDS011;7344;50.864;4.362;2023-07-31T05:15:19;8.57;;;5.13;;
14516;SDS011;7344;50.864;4.362;2023-07-31T05:17:44;6.30;;;5.37;;
14516;SDS011;7344;50.864;4.362;2023-07-31T05:20:10;9.17;;;5.93;;
14516;SDS011;7344;50.864;4.362;2023-07-31T05:22:36;8.87;;;5.53;;
14516;SDS011;7344;50.864;4.362;2023-07-31T05:25:01;6.30;;;4.83;;
14516;SDS011;7344;50.864;4.362;2023-07-31T05:27:27;6.97;;;5.00;;
14516;SDS011;7344;50.864;4.362;2023-07-31T05:29:53;6.60;;;5.40;;
14516;SDS011;7344;50.864;4.362;2023-07-31T05:32:18;10.17;;;5.40;;
14516;SDS011;7344;50.864;4.362;2023-07-31T05:34:44;7.17;;;4.93;;
14516;SDS011;7344;50.864;4.362;2023-07-31T05:37:10;6.97;;;4.73;;
14516;SDS011;7344;50.864;4.362;2023-07-31T05:39:37;9.97;;;5.47;;
14516;SDS011;7344;50.864;4.362;2023-07-31T05:42:02;7.07;;;4.77;;
14516;SDS011;7344;50.864;4.362;2023-07-31T05:44:28;7.13;;;4.37;;
14516;SDS011;7344;50.864;4.362;2023-07-31T05:46:54;8.97;;;5.03;;
14516;SDS011;7344;50.864;4.362;2023-07-31T05:49:19;10.03;;;4.63;;
14516;SDS011;7344;50.864;4.362;2023-07-31T05:51:45;5.93;;;4.70;;
14516;SDS011;7344;50.864;4.362;2023-07-31T05:54:10;7.63;;;4.50;;
14516;SDS011;7344;50.864;4.362;2023-07-31T05:56:36;8.47;;;4.60;;
14516;SDS011;7344;50.864;4.362;2023-07-31T05:59:01;6.73;;;4.73;;
14516;SDS011;7344;50.864;4.362;2023-07-31T06:01:27;8.90;;;4.47;;
14516;SDS011;7344;50.864;4.362;2023-07-31T06:03:53;6.17;;;4.83;;
14516;SDS011;7344;50.864;4.362;2023-07-31T06:06:19;6.70;;;4.40;;
14516;SDS011;7344;50.864;4.362;2023-07-31T06:08:45;5.83;;;4.27;;
14516;SDS011;7344;50.864;4.362;2023-07-31T06:11:10;6.40;;;4.87;;
14516;SDS011;7344;50.864;4.362;2023-07-31T06:13:36;6.27;;;4.67;;
14516;SDS011;7344;50.864;4.362;2023-07-31T06:16:01;7.73;;;4.60;;
14516;SDS011;7344;50.864;4.362;2023-07-31T06:18:30;9.80;;;4.73;;
14516;SDS011;7344;50.864;4.362;2023-07-31T06:20:57;8.73;;;5.10;;
14516;SDS011;7344;50.864;4.362;2023-07-31T06:23:22;6.97;;;4.47;;
14516;SDS011;7344;50.864;4.362;2023-07-31T06:25:48;6.77;;;4.20;;
14516;SDS011;7344;50.864;4.362;2023-07-31T06:28:14;7.20;;;4.43;;
14516;SDS011;7344;50.864;4.362;2023-07-31T06:30:39;7.40;;;4.83;;
14516;SDS011;7344;50.864;4.362;2023-07-31T06:33:05;7.03;;;4.80;;
14516;SDS011;7344;50.864;4.362;2023-07-31T06:35:31;7.90;;;4.47;;
14516;SDS011;7344;50.864;4.362;2023-07-31T06:37:56;8.07;;;4.37;;
14516;SDS011;7344;50.864;4.362;2023-07-31T06:40:22;8.47;;;4.20;;
14516;SDS011;7344;50.864;4.362;2023-07-31T06:42:47;9.60;;;4.60;;
14516;SDS011;7344;50.864;4.362;2023-07-31T06:45:13;6.10;;;4.32;;
14516;SDS011;7344;50.864;4.362;2023-07-31T06:47:39;7.63;;;4.47;;
14516;SDS011;7344;50.864;4.362;2023-07-31T06:50:04;7.93;;;4.35;;
14516;SDS011;7344;50.864;4.362;2023-07-31T06:52:30;6.03;;;4.13;;
14516;SDS011;7344;50.864;4.362;2023-07-31T06:55:03;7.88;;;4.25;;
14516;SDS011;7344;50.864;4.362;2023-07-31T06:57:41;7.07;;;3.75;;
14516;SDS011;7344;50.864;4.362;2023-07-31T07:00:07;6.35;;;4.20;;
14516;SDS011;7344;50.864;4.362;2023-07-31T07:02:33;6.18;;;4.00;;
14516;SDS011;7344;50.864;4.362;2023-07-31T07:04:59;8.23;;;4.13;;
14516;SDS011;7344;50.864;4.362;2023-07-31T07:07:24;8.02;;;4.20;;
14516;SDS011;7344;50.864;4.362;2023-07-31T07:09:50;5.38;;;4.00;;
14516;SDS011;7344;50.864;4.362;2023-07-31T07:12:16;7.72;;;4.20;;
14516;SDS011;7344;50.864;4.362;2023-07-31T07:14:41;9.50;;;4.20;;
14516;SDS011;7344;50.864;4.362;2023-07-31T07:17:07;8.98;;;3.67;;
14516;SDS011;7344;50.864;4.362;2023-07-31T07:19:32;5.53;;;4.13;;
14516;SDS011;7344;50.864;4.362;2023-07-31T07:21:58;8.50;;;3.63;;
14516;SDS011;7344;50.864;4.362;2023-07-31T07:24:26;4.82;;;3.67;;
14516;SDS011;7344;50.864;4.362;2023-07-31T07:26:52;4.78;;;3.60;;
14516;SDS011;7344;50.864;4.362;2023-07-31T07:29:18;3.83;;;3.30;;
14516;SDS011;7344;50.864;4.362;2023-07-31T07:31:43;6.85;;;4.10;;
14516;SDS011;7344;50.864;4.362;2023-07-31T07:34:09;6.22;;;3.55;;
14516;SDS011;7344;50.864;4.362;2023-07-31T07:36:34;6.63;;;4.07;;
14516;SDS011;7344;50.864;4.362;2023-07-31T07:39:00;8.00;;;3.75;;
14516;SDS011;7344;50.864;4.362;2023-07-31T07:41:26;5.43;;;3.58;;
14516;SDS011;7344;50.864;4.362;2023-07-31T07:43:51;4.88;;;3.88;;
14516;SDS011;7344;50.864;4.362;2023-07-31T07:46:17;7.78;;;3.65;;
14516;SDS011;7344;50.864;4.362;2023-07-31T07:48:42;5.22;;;3.55;;
14516;SDS011;7344;50.864;4.362;2023-07-31T07:51:08;7.78;;;3.83;;
14516;SDS011;7344;50.864;4.362;2023-07-31T07:53:33;8.15;;;3.38;;
14516;SDS011;7344;50.864;4.362;2023-07-31T07:55:59;4.70;;;3.28;;
14516;SDS011;7344;50.864;4.362;2023-07-31T07:58:25;7.10;;;3.92;;
14516;SDS011;7344;50.864;4.362;2023-07-31T08:00:51;4.97;;;3.75;;
14516;SDS011;7344;50.864;4.362;2023-07-31T08:03:17;4.47;;;3.78;;
14516;SDS011;7344;50.864;4.362;2023-07-31T08:05:43;5.95;;;3.65;;
14516;SDS011;7344;50.864;4.362;2023-07-31T08:08:13;9.30;;;3.80;;
14516;SDS011;7344;50.864;4.362;2023-07-31T08:10:40;5.32;;;3.20;;
14516;SDS011;7344;50.864;4.362;2023-07-31T08:13:05;5.40;;;3.42;;
14516;SDS011;7344;50.864;4.362;2023-07-31T08:15:31;5.80;;;3.10;;
14516;SDS011;7344;50.864;4.362;2023-07-31T08:17:56;10.52;;;3.67;;
14516;SDS011;7344;50.864;4.362;2023-07-31T08:20:22;6.63;;;3.72;;
14516;SDS011;7344;50.864;4.362;2023-07-31T08:22:47;5.65;;;3.55;;
14516;SDS011;7344;50.864;4.362;2023-07-31T08:25:13;5.60;;;3.13;;
14516;SDS011;7344;50.864;4.362;2023-07-31T08:27:42;7.93;;;3.33;;
14516;SDS011;7344;50.864;4.362;2023-07-31T08:30:08;5.03;;;3.50;;
14516;SDS011;7344;50.864;4.362;2023-07-31T08:32:34;5.75;;;3.20;;
14516;SDS011;7344;50.864;4.362;2023-07-31T08:35:00;5.53;;;3.45;;
14516;SDS011;7344;50.864;4.362;2023-07-31T08:37:25;5.63;;;3.55;;
14516;SDS011;7344;50.864;4.362;2023-07-31T08:39:51;6.15;;;3.50;;
14516;SDS011;7344;50.864;4.362;2023-07-31T08:42:16;5.93;;;3.60;;
14516;SDS011;7344;50.864;4.362;2023-07-31T08:44:43;5.93;;;3.65;;
14516;SDS011;7344;50.864;4.362;2023-07-31T08:47:09;7.13;;;3.70;;
14516;SDS011;7344;50.864;4.362;2023-07-31T08:49:35;6.07;;;3.40;;
14516;SDS011;7344;50.864;4.362;2023-07-31T08:52:03;4.10;;;3.33;;
14516;SDS011;7344;50.864;4.362;2023-07-31T08:54:29;4.00;;;3.20;;
14516;SDS011;7344;50.864;4.362;2023-07-31T08:56:57;4.57;;;3.85;;
14516;SDS011;7344;50.864;4.362;2023-07-31T08:59:24;6.13;;;4.13;;
14516;SDS011;7344;50.864;4.362;2023-07-31T09:01:53;6.47;;;4.00;;
14516;SDS011;7344;50.864;4.362;2023-07-31T09:04:23;5.13;;;3.67;;
14516;SDS011;7344;50.864;4.362;2023-07-31T09:06:49;4.10;;;3.72;;
14516;SDS011;7344;50.864;4.362;2023-07-31T09:09:20;6.68;;;3.85;;
14516;SDS011;7344;50.864;4.362;2023-07-31T09:11:46;8.63;;;3.97;;
14516;SDS011;7344;50.864;4.362;2023-07-31T09:14:11;6.95;;;4.25;;
14516;SDS011;7344;50.864;4.362;2023-07-31T09:19:37;6.97;;;3.95;;
14516;SDS011;7344;50.864;4.362;2023-07-31T09:22:03;7.00;;;4.13;;
14516;SDS011;7344;50.864;4.362;2023-07-31T09:24:30;5.22;;;4.10;;
14516;SDS011;7344;50.864;4.362;2023-07-31T09:26:58;5.22;;;4.00;;
14516;SDS011;7344;50.864;4.362;2023-07-31T09:29:25;7.18;;;3.90;;
14516;SDS011;7344;50.864;4.362;2023-07-31T09:31:52;6.70;;;4.25;;
14516;SDS011;7344;50.864;4.362;2023-07-31T09:34:19;5.57;;;4.03;;
14516;SDS011;7344;50.864;4.362;2023-07-31T09:39:19;5.50;;;4.30;;
14516;SDS011;7344;50.864;4.362;2023-07-31T09:41:46;7.43;;;4.63;;
14516;SDS011;7344;50.864;4.362;2023-07-31T09:44:18;6.00;;;4.38;;
14516;SDS011;7344;50.864;4.362;2023-07-31T09:46:44;7.97;;;4.50;;
14516;SDS011;7344;50.864;4.362;2023-07-31T09:49:10;7.80;;;4.60;;
14516;SDS011;7344;50.864;4.362;2023-07-31T09:51:37;7.88;;;4.85;;
14516;SDS011;7344;50.864;4.362;2023-07-31T09:54:14;6.57;;;4.63;;
14516;SDS011;7344;50.864;4.362;2023-07-31T09:56:41;9.75;;;5.45;;
14516;SDS011;7344;50.864;4.362;2023-07-31T09:59:10;8.48;;;5.38;;
14516;SDS011;7344;50.864;4.362;2023-07-31T10:01:38;8.68;;;5.38;;
14516;SDS011;7344;50.864;4.362;2023-07-31T10:04:05;8.60;;;5.63;;
14516;SDS011;7344;50.864;4.362;2023-07-31T10:06:34;6.38;;;5.30;;
14516;SDS011;7344;50.864;4.362;2023-07-31T10:09:00;9.63;;;5.45;;
14516;SDS011;7344;50.864;4.362;2023-07-31T10:11:28;8.60;;;5.43;;
14516;SDS011;7344;50.864;4.362;2023-07-31T10:13:58;7.22;;;5.22;;
14516;SDS011;7344;50.864;4.362;2023-07-31T10:16:24;9.18;;;5.80;;
14516;SDS011;7344;50.864;4.362;2023-07-31T10:18:51;9.85;;;5.78;;
14516;SDS011;7344;50.864;4.362;2023-07-31T10:21:17;6.68;;;5.20;;
14516;SDS011;7344;50.864;4.362;2023-07-31T10:23:43;7.80;;;5.35;;
14516;SDS011;7344;50.864;4.362;2023-07-31T10:26:09;11.38;;;5.50;;
14516;SDS011;7344;50.864;4.362;2023-07-31T10:28:38;8.43;;;5.63;;
14516;SDS011;7344;50.864;4.362;2023-07-31T10:31:05;7.80;;;5.90;;
14516;SDS011;7344;50.864;4.362;2023-07-31T10:33:31;10.95;;;5.30;;
14516;SDS011;7344;50.864;4.362;2023-07-31T10:36:12;8.05;;;5.97;;
14516;SDS011;7344;50.864;4.362;2023-07-31T10:38:45;10.15;;;5.10;;
14516;SDS011;7344;50.864;4.362;2023-07-31T10:41:13;8.93;;;5.10;;
14516;SDS011;7344;50.864;4.362;2023-07-31T10:43:39;8.00;;;5.55;;
14516;SDS011;7344;50.864;4.362;2023-07-31T10:46:11;10.88;;;5.80;;
14516;SDS011;7344;50.864;4.362;2023-07-31T10:48:38;9.65;;;5.88;;
14516;SDS011;7344;50.864;4.362;2023-07-31T10:51:07;8.90;;;5.28;;
14516;SDS011;7344;50.864;4.362;2023-07-31T10:53:35;9.07;;;5.10;;
14516;SDS011;7344;50.864;4.362;2023-07-31T10:56:01;9.52;;;5.40;;
14516;SDS011;7344;50.864;4.362;2023-07-31T10:58:29;8.20;;;5.85;;
14516;SDS011;7344;50.864;4.362;2023-07-31T11:00:57;9.48;;;5.60;;
14516;SDS011;7344;50.864;4.362;2023-07-31T11:03:40;11.43;;;5.28;;
14516;SDS011;7344;50.864;4.362;2023-07-31T11:06:06;7.93;;;4.90;;
14516;SDS011;7344;50.864;4.362;2023-07-31T11:08:33;9.82;;;5.07;;
14516;SDS011;7344;50.864;4.362;2023-07-31T11:13:31;9.20;;;5.45;;
14516;SDS011;7344;50.864;4.362;2023-07-31T11:16:10;8.27;;;5.07;;
14516;SDS011;7344;50.864;4.362;2023-07-31T11:18:43;8.15;;;5.03;;
14516;SDS011;7344;50.864;4.362;2023-07-31T11:21:13;8.50;;;4.60;;
14516;SDS011;7344;50.864;4.362;2023-07-31T11:23:56;7.07;;;4.85;;
14516;SDS011;7344;50.864;4.362;2023-07-31T11:26:23;8.93;;;5.13;;
14516;SDS011;7344;50.864;4.362;2023-07-31T11:28:49;10.38;;;5.40;;
14516;SDS011;7344;50.864;4.362;2023-07-31T11:31:15;7.75;;;5.22;;
14516;SDS011;7344;50.864;4.362;2023-07-31T11:33:41;8.73;;;4.85;;
14516;SDS011;7344;50.864;4.362;2023-07-31T11:36:13;9.18;;;5.20;;
14516;SDS011;7344;50.864;4.362;2023-07-31T11:38:42;7.80;;;5.18;;
14516;SDS011;7344;50.864;4.362;2023-07-31T11:41:08;7.93;;;5.72;;
14516;SDS011;7344;50.864;4.362;2023-07-31T11:43:34;6.32;;;5.00;;
14516;SDS011;7344;50.864;4.362;2023-07-31T11:46:01;9.18;;;5.30;;
14516;SDS011;7344;50.864;4.362;2023-07-31T11:48:32;12.52;;;5.50;;
14516;SDS011;7344;50.864;4.362;2023-07-31T11:51:01;6.75;;;4.88;;
14516;SDS011;7344;50.864;4.362;2023-07-31T11:56:17;8.20;;;5.13;;
14516;SDS011;7344;50.864;4.362;2023-07-31T11:58:44;8.25;;;5.40;;
14516;SDS011;7344;50.864;4.362;2023-07-31T12:01:15;11.38;;;5.40;;
14516;SDS011;7344;50.864;4.362;2023-07-31T12:03:47;9.38;;;4.97;;
14516;SDS011;7344;50.864;4.362;2023-07-31T12:06:14;8.15;;;4.68;;
14516;SDS011;7344;50.864;4.362;2023-07-31T12:08:39;7.13;;;5.43;;
14516;SDS011;7344;50.864;4.362;2023-07-31T12:11:05;7.38;;;4.80;;
14516;SDS011;7344;50.864;4.362;2023-07-31T12:13:34;11.80;;;4.93;;
14516;SDS011;7344;50.864;4.362;2023-07-31T12:16:01;8.55;;;5.43;;
14516;SDS011;7344;50.864;4.362;2023-07-31T12:18:28;8.18;;;5.03;;
14516;SDS011;7344;50.864;4.362;2023-07-31T12:20:56;7.60;;;4.68;;
14516;SDS011;7344;50.864;4.362;2023-07-31T12:23:27;7.50;;;5.10;;
14516;SDS011;7344;50.864;4.362;2023-07-31T12:28:38;10.20;;;5.47;;
14516;SDS011;7344;50.864;4.362;2023-07-31T12:31:09;11.10;;;5.47;;
14516;SDS011;7344;50.864;4.362;2023-07-31T12:33:36;9.20;;;5.18;;
14516;SDS011;7344;50.864;4.362;2023-07-31T12:36:07;9.43;;;5.32;;
14516;SDS011;7344;50.864;4.362;2023-07-31T12:38:34;9.98;;;5.50;;
14516;SDS011;7344;50.864;4.362;2023-07-31T12:41:00;9.43;;;5.40;;
14516;SDS011;7344;50.864;4.362;2023-07-31T12:43:26;7.85;;;5.80;;
14516;SDS011;7344;50.864;4.362;2023-07-31T12:45:53;7.00;;;4.75;;
14516;SDS011;7344;50.864;4.362;2023-07-31T12:48:19;9.30;;;4.90;;
14516;SDS011;7344;50.864;4.362;2023-07-31T12:50:45;9.52;;;5.10;;
14516;SDS011;7344;50.864;4.362;2023-07-31T12:53:10;8.57;;;4.72;;
14516;SDS011;7344;50.864;4.362;2023-07-31T12:55:36;7.93;;;4.30;;
14516;SDS011;7344;50.864;4.362;2023-07-31T12:58:02;8.23;;;4.65;;
14516;SDS011;7344;50.864;4.362;2023-07-31T13:00:28;7.50;;;4.63;;
14516;SDS011;7344;50.864;4.362;2023-07-31T13:02:53;8.10;;;4.57;;
14516;SDS011;7344;50.864;4.362;2023-07-31T13:05:19;6.25;;;4.43;;
14516;SDS011;7344;50.864;4.362;2023-07-31T13:07:46;7.32;;;4.32;;
14516;SDS011;7344;50.864;4.362;2023-07-31T13:10:12;6.20;;;3.88;;
14516;SDS011;7344;50.864;4.362;2023-07-31T13:12:38;6.68;;;3.80;;
14516;SDS011;7344;50.864;4.362;2023-07-31T13:15:04;5.43;;;2.97;;
14516;SDS011;7344;50.864;4.362;2023-07-31T13:17:30;6.28;;;3.25;;
14516;SDS011;7344;50.864;4.362;2023-07-31T13:19:56;4.97;;;3.25;;
14516;SDS011;7344;50.864;4.362;2023-07-31T13:22:21;4.80;;;3.60;;
14516;SDS011;7344;50.864;4.362;2023-07-31T13:24:47;3.38;;;3.00;;
14516;SDS011;7344;50.864;4.362;2023-07-31T13:27:13;4.30;;;3.58;;
14516;SDS011;7344;50.864;4.362;2023-07-31T13:29:43;4.38;;;3.63;;
14516;SDS011;7344;50.864;4.362;2023-07-31T13:32:09;4.88;;;4.10;;
14516;SDS011;7344;50.864;4.362;2023-07-31T13:34:34;7.75;;;4.20;;
14516;SDS011;7344;50.864;4.362;2023-07-31T13:37:00;6.10;;;3.75;;
14516;SDS011;7344;50.864;4.362;2023-07-31T13:39:25;5.35;;;3.90;;
14516;SDS011;7344;50.864;4.362;2023-07-31T13:41:51;5.15;;;3.80;;
14516;SDS011;7344;50.864;4.362;2023-07-31T13:44:16;5.70;;;3.63;;
14516;SDS011;7344;50.864;4.362;2023-07-31T13:46:42;4.20;;;3.65;;
14516;SDS011;7344;50.864;4.362;2023-07-31T13:49:08;4.55;;;4.00;;
14516;SDS011;7344;50.864;4.362;2023-07-31T13:51:33;6.35;;;4.53;;
14516;SDS011;7344;50.864;4.362;2023-07-31T13:53:59;6.53;;;3.75;;
14516;SDS011;7344;50.864;4.362;2023-07-31T13:56:24;5.68;;;4.32;;
14516;SDS011;7344;50.864;4.362;2023-07-31T13:58:50;6.68;;;4.47;;
14516;SDS011;7344;50.864;4.362;2023-07-31T14:01:15;5.63;;;4.53;;
14516;SDS011;7344;50.864;4.362;2023-07-31T14:03:41;5.72;;;4.57;;
14516;SDS011;7344;50.864;4.362;2023-07-31T14:06:07;6.05;;;4.60;;
14516;SDS011;7344;50.864;4.362;2023-07-31T14:08:32;6.57;;;4.60;;
14516;SDS011;7344;50.864;4.362;2023-07-31T14:10:58;6.50;;;4.70;;
14516;SDS011;7344;50.864;4.362;2023-07-31T14:13:23;5.85;;;4.70;;
14516;SDS011;7344;50.864;4.362;2023-07-31T14:15:49;4.65;;;4.00;;
14516;SDS011;7344;50.864;4.362;2023-07-31T14:18:15;4.88;;;4.30;;
14516;SDS011;7344;50.864;4.362;2023-07-31T14:20:40;7.63;;;4.65;;
14516;SDS011;7344;50.864;4.362;2023-07-31T14:23:06;8.15;;;5.20;;
14516;SDS011;7344;50.864;4.362;2023-07-31T14:25:31;6.60;;;4.93;;
14516;SDS011;7344;50.864;4.362;2023-07-31T14:27:57;5.78;;;4.93;;
14516;SDS011;7344;50.864;4.362;2023-07-31T14:30:22;5.47;;;4.80;;
14516;SDS011;7344;50.864;4.362;2023-07-31T14:32:48;4.45;;;4.05;;
14516;SDS011;7344;50.864;4.362;2023-07-31T14:35:14;5.78;;;4.13;;
14516;SDS011;7344;50.864;4.362;2023-07-31T14:37:40;6.72;;;4.82;;
14516;SDS011;7344;50.864;4.362;2023-07-31T14:40:08;4.57;;;4.18;;
14516;SDS011;7344;50.864;4.362;2023-07-31T14:42:35;6.95;;;4.43;;
14516;SDS011;7344;50.864;4.362;2023-07-31T14:45:01;3.92;;;3.63;;
14516;SDS011;7344;50.864;4.362;2023-07-31T14:47:27;5.72;;;4.32;;
14516;SDS011;7344;50.864;4.362;2023-07-31T14:49:53;4.20;;;3.80;;
14516;SDS011;7344;50.864;4.362;2023-07-31T14:52:19;5.40;;;3.72;;
14516;SDS011;7344;50.864;4.362;2023-07-31T14:54:44;5.00;;;3.47;;
14516;SDS011;7344;50.864;4.362;2023-07-31T14:57:10;3.92;;;3.63;;
14516;SDS011;7344;50.864;4.362;2023-07-31T14:59:36;4.40;;;3.45;;
14516;SDS011;7344;50.864;4.362;2023-07-31T15:02:01;5.18;;;3.40;;
14516;SDS011;7344;50.864;4.362;2023-07-31T15:04:28;6.30;;;3.40;;
14516;SDS011;7344;50.864;4.362;2023-07-31T15:06:53;4.70;;;3.33;;
14516;SDS011;7344;50.864;4.362;2023-07-31T15:09:19;4.63;;;3.40;;
14516;SDS011;7344;50.864;4.362;2023-07-31T15:11:45;3.97;;;3.55;;
14516;SDS011;7344;50.864;4.362;2023-07-31T15:14:11;3.53;;;3.22;;